AirNav   Everest Fuels
 
 1085 users online  

WI28 Walter's Agri-Center Airport
Rio Creek, Wisconsin, USA

GOING TO RIO CREEK?


FAA INFORMATION EFFECTIVE 26 MARCH 2020

Location

FAA Identifier: WI28
Lat/Long: 44-35-09.9920N 087-33-27.3230W
44-35.166533N 087-33.455383W
44.5861089,-87.5575897
(estimated)
Elevation: 717 ft. / 218.5 m (surveyed)
Variation: 02W (1985)
Time zone: UTC -5 (UTC -6 during Standard Time)
Zip code: 54201

Airport Operations

Airport use: Private use. Permission required prior to landing
Activation date: 07/1974
Control tower: no
ARTCC: MINNEAPOLIS CENTER
FSS: GREEN BAY FLIGHT SERVICE STATION
LCL PHONE NUMBER 494-7417.
Attendance: UNATNDD
Wind indicator: yes
Segmented circle: no

Airport Communications

WX AWOS-3PT at SUE (17 nm N): 128.325 (920-743-7087)

Nearby radio navigation aids

VOR radial/distance  VOR name  Freq  Var
GRBr085/27.3GREEN BAY VORTAC115.5001E
MNMr174/35.8MENOMINEE VOR/DME109.6000E

Airport Services

Parking: tiedowns
Airframe service: NONE
Powerplant service: NONE
Bottled oxygen: NONE
Bulk oxygen: NONE

Runway Information

Runway 7/25

Dimensions: 1750 x 80 ft. / 533 x 24 m
550 FT STWY SW END & 450 FT STWY NE END.
Surface: turf, in fair condition
RUNWAY 7  RUNWAY 25
Traffic pattern: leftleft
Markings: nonenone
Runway end identifier lights: nono
Obstructions: 37 ft. tree, 410 ft. from runway, 75 ft. right of centerline, 11:1 slope to clear62 ft. tree, 375 ft. from runway, 110 ft. right of centerline, 6:1 slope to clear

Airport Ownership and Management from official FAA records

Ownership: Privately-owned
Owner: DONALD H. WALTER
E 4447 HWY 54
ALGOMA, WI 54201
Phone 920-837-7222
Manager: DONALD H. WALTER
E 4447 HWY 54
ALGOMA, WI 54201
Phone 920-837-7222
OTHER PHONE NUMBER 920-837-7777.

Airport Operational Statistics

Aircraft based on the field: 12
Single engine airplanes: 12
    
Aircraft operations: avg 62/month *
67% local general aviation
33% transient general aviation
* for 12-month period ending 17 July 1998

Additional Remarks

RY 25 +15 FT HGR 95 FT R AT THLD; 30 FT TREES 75 FT R AT THLD.
(52-07) RR PARALLEL TO RWY 110'SE.
FOR CD CTC MINNEAPOLIS ARTCC AT 651-463-5588.
100 FT GRAIN ELEVATOR LEG SOUTH AND EAST OF RWY 25.

Instrument Procedures

There are no published instrument procedures at WI28.

Some nearby airports with instrument procedures:

KSUE - Door County Cherryland Airport (17 nm N)
KOCQ - Oconto-J Douglas Bake Municipal Airport (23 nm NW)
KGRB - Green Bay-Austin Straubel International Airport (25 nm W)
KMTW - Manitowoc County Airport (28 nm S)
KMNM - Menominee Regional Airport (33 nm N)
 
Loc | Ops | Rwys | IFR | FBO | Links
Com | Nav | Svcs | Stats | Notes
Area around WI28 (Walter's Agri-Center Airport)
 
Road maps at: MapQuest Bing Google
 
Aerial photo
WARNING: Photo may not be current or correct
Aerial photo of WI28 (Walter's Agri-Center Airport)
Do you have a better or more recent aerial photo of Walter's Agri-Center Airport that you would like to share? If so, please send us your photo.

 
Sectional chart

 
Airport distance calculator
Flying to Walter's Agri-Center Airport? Find the distance to fly.

From to WI28

Sunrise and sunset
Times for 06-Apr-2020
 Local
(UTC-5)
 Zulu
(UTC)
Morning civil twilight05:5110:51
Sunrise06:2111:21
Sunset19:2400:24
Evening civil twilight19:5300:53

Current date and time
Zulu (UTC)  06-Apr-2020 15:11:03
Local (UTC-5)  06-Apr-2020 10:11:03
 
METAR
KSUE 
17nm N 
061456Z AUTO 11005KT 10SM CLR 08/M06 A3011 RMK AO2 SLP202 T00831056 58010
KOCQ 
23nm NW 
061455Z AUTO 08004KT 10SM CLR 07/M02 A3010 RMK AO1 T00651022
KGRB 
25nm W 
061453Z 15003KT 10SM CLR 08/M05 A3009 RMK AO2 SLP194 T00831050 58013
KMTW 
29nm S 
061456Z AUTO 00000KT 10SM CLR 07/M02 A3011 RMK AO2 SLP202 T00721022 58009
KMNM 
32nm N 
061456Z AUTO 11004KT 10SM CLR 07/M03 A3011 RMK AO2 SLP199 T00671028 58011 $
TAF
KGRB 
25nm W 
061136Z 0612/0712 VRB03KT P6SM SCT200 FM061400 15005KT P6SM BKN100 FM062100 12006KT P6SM BKN050 FM070300 11003KT P6SM OVC035 FM070800 08004KT 5SM BR OVC012
KMTW 
29nm S 
061136Z 0612/0712 17003KT P6SM SCT100 FM061700 14007KT P6SM BKN100 FM062100 13005KT P6SM BKN070 FM070400 12003KT P6SM OVC025 FM071000 11002KT 5SM BR OVC008
NOTAMs
Click for the latest NOTAMs
NOTAMs are issued by the DoD/FAA and will open in a separate window not controlled by AirNav.

 

 
 

Would you like to see your business listed on this page?

 If your business provides an interesting product or service to pilots, flight crews, aircraft, or users of the Walter's Agri-Center Airport, you should consider listing it here.  To start the listing process, click on the button below
 
Add a business
 

Other Pages about Walter's Agri-Center Airport

www.riocreekairport.com
 
Update a link
 
Copyright © AirNav, LLC. All rights reserved. Privacy Policy  Contact